sensor_id;sensor_type;location;lat;lon;timestamp;temperature;humidity
9907;DHT22;4992;51.628;6.664;2023-03-26T00:01:21;8.50;99.90
9907;DHT22;4992;51.628;6.664;2023-03-26T00:03:48;8.50;99.90
9907;DHT22;4992;51.628;6.664;2023-03-26T00:06:19;8.50;99.90
9907;DHT22;4992;51.628;6.664;2023-03-26T00:08:45;8.50;99.90
9907;DHT22;4992;51.628;6.664;2023-03-26T00:11:13;8.50;99.90
9907;DHT22;4992;51.628;6.664;2023-03-26T00:13:40;8.60;99.90
9907;DHT22;4992;51.628;6.664;2023-03-26T00:16:09;8.60;99.90
9907;DHT22;4992;51.628;6.664;2023-03-26T00:18:35;8.60;99.90
9907;DHT22;4992;51.628;6.664;2023-03-26T00:21:03;8.60;99.90
9907;DHT22;4992;51.628;6.664;2023-03-26T00:23:30;8.60;99.90
9907;DHT22;4992;51.628;6.664;2023-03-26T00:25:57;8.60;99.90
9907;DHT22;4992;51.628;6.664;2023-03-26T00:28:23;8.60;99.90
9907;DHT22;4992;51.628;6.664;2023-03-26T00:31:00;8.60;99.90
9907;DHT22;4992;51.628;6.664;2023-03-26T00:33:27;8.60;99.90
9907;DHT22;4992;51.628;6.664;2023-03-26T00:35:54;8.60;99.90
9907;DHT22;4992;51.628;6.664;2023-03-26T00:38:23;8.60;99.90
9907;DHT22;4992;51.628;6.664;2023-03-26T00:40:50;8.60;99.90
9907;DHT22;4992;51.628;6.664;2023-03-26T00:43:16;8.60;99.90
9907;DHT22;4992;51.628;6.664;2023-03-26T00:45:53;8.60;99.90
9907;DHT22;4992;51.628;6.664;2023-03-26T00:48:19;8.50;99.90
9907;DHT22;4992;51.628;6.664;2023-03-26T00:50:46;8.50;99.90
9907;DHT22;4992;51.628;6.664;2023-03-26T00:53:13;8.50;99.90
9907;DHT22;4992;51.628;6.664;2023-03-26T00:55:43;8.50;99.90
9907;DHT22;4992;51.628;6.664;2023-03-26T00:58:10;8.50;99.90
9907;DHT22;4992;51.628;6.664;2023-03-26T01:00:51;8.50;99.90
9907;DHT22;4992;51.628;6.664;2023-03-26T01:03:18;8.60;99.90
9907;DHT22;4992;51.628;6.664;2023-03-26T01:05:47;8.60;99.90
9907;DHT22;4992;51.628;6.664;2023-03-26T01:10:53;8.60;99.90
9907;DHT22;4992;51.628;6.664;2023-03-26T01:13:28;8.60;99.90
9907;DHT22;4992;51.628;6.664;2023-03-26T01:15:54;8.60;99.90
9907;DHT22;4992;51.628;6.664;2023-03-26T01:18:23;8.60;99.90
9907;DHT22;4992;51.628;6.664;2023-03-26T01:20:59;8.60;99.90
9907;DHT22;4992;51.628;6.664;2023-03-26T01:24:02;8.60;99.90
9907;DHT22;4992;51.628;6.664;2023-03-26T01:26:32;8.60;99.90
9907;DHT22;4992;51.628;6.664;2023-03-26T01:29:01;8.60;99.90
9907;DHT22;4992;51.628;6.664;2023-03-26T01:31:39;8.60;99.90
9907;DHT22;4992;51.628;6.664;2023-03-26T01:34:19;8.60;99.90
9907;DHT22;4992;51.628;6.664;2023-03-26T01:39:52;8.60;99.90
9907;DHT22;4992;51.628;6.664;2023-03-26T01:42:29;8.50;99.90
9907;DHT22;4992;51.628;6.664;2023-03-26T01:45:05;8.50;99.90
9907;DHT22;4992;51.628;6.664;2023-03-26T01:47:33;8.50;99.90
9907;DHT22;4992;51.628;6.664;2023-03-26T01:50:00;8.40;99.90
9907;DHT22;4992;51.628;6.664;2023-03-26T01:52:25;8.40;99.90
9907;DHT22;4992;51.628;6.664;2023-03-26T01:54:53;8.40;99.90
9907;DHT22;4992;51.628;6.664;2023-03-26T01:57:36;8.30;99.90
9907;DHT22;4992;51.628;6.664;2023-03-26T02:03:09;8.40;99.90
9907;DHT22;4992;51.628;6.664;2023-03-26T02:08:53;8.30;99.90
9907;DHT22;4992;51.628;6.664;2023-03-26T02:11:21;8.40;99.90
9907;DHT22;4992;51.628;6.664;2023-03-26T02:13:46;8.40;99.90
9907;DHT22;4992;51.628;6.664;2023-03-26T02:16:14;8.30;99.90
9907;DHT22;4992;51.628;6.664;2023-03-26T02:18:44;8.30;99.90
9907;DHT22;4992;51.628;6.664;2023-03-26T02:21:17;8.30;99.90
9907;DHT22;4992;51.628;6.664;2023-03-26T02:23:50;8.30;99.90
9907;DHT22;4992;51.628;6.664;2023-03-26T02:26:23;8.30;99.90
9907;DHT22;4992;51.628;6.664;2023-03-26T02:28:49;8.30;99.90
9907;DHT22;4992;51.628;6.664;2023-03-26T02:31:14;8.20;99.90
9907;DHT22;4992;51.628;6.664;2023-03-26T02:33:41;8.20;99.90
9907;DHT22;4992;51.628;6.664;2023-03-26T02:36:10;8.20;99.90
9907;DHT22;4992;51.628;6.664;2023-03-26T02:38:38;8.10;99.90
9907;DHT22;4992;51.628;6.664;2023-03-26T02:41:04;8.10;99.90
9907;DHT22;4992;51.628;6.664;2023-03-26T02:43:30;8.10;99.90
9907;DHT22;4992;51.628;6.664;2023-03-26T02:45:56;8.10;99.90
9907;DHT22;4992;51.628;6.664;2023-03-26T02:48:22;8.10;99.90
9907;DHT22;4992;51.628;6.664;2023-03-26T02:50:48;8.10;99.90
9907;DHT22;4992;51.628;6.664;2023-03-26T02:53:17;8.10;99.90
9907;DHT22;4992;51.628;6.664;2023-03-26T02:55:43;8.10;99.90
9907;DHT22;4992;51.628;6.664;2023-03-26T02:58:09;8.10;99.90
9907;DHT22;4992;51.628;6.664;2023-03-26T03:00:35;8.00;99.90
9907;DHT22;4992;51.628;6.664;2023-03-26T03:03:01;8.00;99.90
9907;DHT22;4992;51.628;6.664;2023-03-26T03:05:32;8.00;99.90
9907;DHT22;4992;51.628;6.664;2023-03-26T03:07:58;8.00;99.90
9907;DHT22;4992;51.628;6.664;2023-03-26T03:10:24;8.00;99.90
9907;DHT22;4992;51.628;6.664;2023-03-26T03:12:52;8.00;99.90
9907;DHT22;4992;51.628;6.664;2023-03-26T03:15:18;8.00;99.90
9907;DHT22;4992;51.628;6.664;2023-03-26T03:17:44;8.00;99.90
9907;DHT22;4992;51.628;6.664;2023-03-26T03:20:10;7.90;99.90
9907;DHT22;4992;51.628;6.664;2023-03-26T03:22:35;7.90;99.90
9907;DHT22;4992;51.628;6.664;2023-03-26T03:25:02;7.80;99.90
9907;DHT22;4992;51.628;6.664;2023-03-26T03:27:27;7.80;99.90
9907;DHT22;4992;51.628;6.664;2023-03-26T03:29:53;7.70;99.90
9907;DHT22;4992;51.628;6.664;2023-03-26T03:32:23;7.70;99.90
9907;DHT22;4992;51.628;6.664;2023-03-26T03:34:49;7.70;99.90
9907;DHT22;4992;51.628;6.664;2023-03-26T03:37:16;7.60;99.90
9907;DHT22;4992;51.628;6.664;2023-03-26T03:39:42;7.60;99.90
9907;DHT22;4992;51.628;6.664;2023-03-26T03:42:07;7.60;99.90
9907;DHT22;4992;51.628;6.664;2023-03-26T03:44:33;7.50;99.90
9907;DHT22;4992;51.628;6.664;2023-03-26T03:46:58;7.50;99.90
9907;DHT22;4992;51.628;6.664;2023-03-26T03:49:24;7.50;99.90
9907;DHT22;4992;51.628;6.664;2023-03-26T03:51:49;7.50;99.90
9907;DHT22;4992;51.628;6.664;2023-03-26T03:54:15;7.50;99.90
9907;DHT22;4992;51.628;6.664;2023-03-26T03:56:40;7.40;99.90
9907;DHT22;4992;51.628;6.664;2023-03-26T03:59:06;7.40;99.90
9907;DHT22;4992;51.628;6.664;2023-03-26T04:01:33;7.50;99.90
9907;DHT22;4992;51.628;6.664;2023-03-26T04:03:59;7.40;99.90
9907;DHT22;4992;51.628;6.664;2023-03-26T04:06:25;7.40;99.90
9907;DHT22;4992;51.628;6.664;2023-03-26T04:08:51;7.40;99.90
9907;DHT22;4992;51.628;6.664;2023-03-26T04:11:16;7.40;99.90
9907;DHT22;4992;51.628;6.664;2023-03-26T04:13:43;7.40;99.90
9907;DHT22;4992;51.628;6.664;2023-03-26T04:16:09;7.40;99.90
9907;DHT22;4992;51.628;6.664;2023-03-26T04:18:36;7.40;99.90
9907;DHT22;4992;51.628;6.664;2023-03-26T04:21:05;7.40;99.90
9907;DHT22;4992;51.628;6.664;2023-03-26T04:23:32;7.40;99.90
9907;DHT22;4992;51.628;6.664;2023-03-26T04:26:01;7.40;99.90
9907;DHT22;4992;51.628;6.664;2023-03-26T04:28:44;7.50;99.90
9907;DHT22;4992;51.628;6.664;2023-03-26T04:31:17;7.50;99.90
9907;DHT22;4992;51.628;6.664;2023-03-26T04:33:45;7.50;99.90
9907;DHT22;4992;51.628;6.664;2023-03-26T04:36:12;7.40;99.90
9907;DHT22;4992;51.628;6.664;2023-03-26T04:38:42;7.40;99.90
9907;DHT22;4992;51.628;6.664;2023-03-26T04:41:12;7.40;99.90
9907;DHT22;4992;51.628;6.664;2023-03-26T04:43:38;7.40;99.90
9907;DHT22;4992;51.628;6.664;2023-03-26T04:46:14;7.40;99.90
9907;DHT22;4992;51.628;6.664;2023-03-26T04:48:43;7.40;99.90
9907;DHT22;4992;51.628;6.664;2023-03-26T04:51:09;7.40;99.90
9907;DHT22;4992;51.628;6.664;2023-03-26T04:53:55;7.40;99.90
9907;DHT22;4992;51.628;6.664;2023-03-26T04:59:12;7.40;99.90
9907;DHT22;4992;51.628;6.664;2023-03-26T05:01:40;7.40;99.90
9907;DHT22;4992;51.628;6.664;2023-03-26T05:04:06;7.40;99.90
9907;DHT22;4992;51.628;6.664;2023-03-26T05:06:32;7.40;99.90
9907;DHT22;4992;51.628;6.664;2023-03-26T05:08:59;7.40;99.90
9907;DHT22;4992;51.628;6.664;2023-03-26T05:11:26;7.40;99.90
9907;DHT22;4992;51.628;6.664;2023-03-26T05:13:52;7.40;99.90
9907;DHT22;4992;51.628;6.664;2023-03-26T05:16:17;7.40;99.90
9907;DHT22;4992;51.628;6.664;2023-03-26T05:18:43;7.50;99.90
9907;DHT22;4992;51.628;6.664;2023-03-26T05:21:08;7.50;99.90
9907;DHT22;4992;51.628;6.664;2023-03-26T05:23:35;7.50;99.90
9907;DHT22;4992;51.628;6.664;2023-03-26T05:26:00;7.50;99.90
9907;DHT22;4992;51.628;6.664;2023-03-26T05:28:26;7.50;99.90
9907;DHT22;4992;51.628;6.664;2023-03-26T05:30:52;7.50;99.90
9907;DHT22;4992;51.628;6.664;2023-03-26T05:33:19;7.50;99.90
9907;DHT22;4992;51.628;6.664;2023-03-26T05:35:45;7.50;99.90
9907;DHT22;4992;51.628;6.664;2023-03-26T05:38:10;7.50;99.90
9907;DHT22;4992;51.628;6.664;2023-03-26T05:40:36;7.50;99.90
9907;DHT22;4992;51.628;6.664;2023-03-26T05:43:02;7.50;99.90
9907;DHT22;4992;51.628;6.664;2023-03-26T05:45:28;7.50;99.90
9907;DHT22;4992;51.628;6.664;2023-03-26T05:47:54;7.50;99.90
9907;DHT22;4992;51.628;6.664;2023-03-26T05:50:20;7.50;99.90
9907;DHT22;4992;51.628;6.664;2023-03-26T05:52:46;7.50;99.90
9907;DHT22;4992;51.628;6.664;2023-03-26T05:55:12;7.50;99.90
9907;DHT22;4992;51.628;6.664;2023-03-26T05:57:38;7.50;99.90
9907;DHT22;4992;51.628;6.664;2023-03-26T06:00:05;7.50;99.90
9907;DHT22;4992;51.628;6.664;2023-03-26T06:02:33;7.50;99.90
9907;DHT22;4992;51.628;6.664;2023-03-26T06:05:00;7.50;99.90
9907;DHT22;4992;51.628;6.664;2023-03-26T06:07:27;7.60;99.90
9907;DHT22;4992;51.628;6.664;2023-03-26T06:09:53;7.60;99.90
9907;DHT22;4992;51.628;6.664;2023-03-26T06:12:19;7.60;99.90
9907;DHT22;4992;51.628;6.664;2023-03-26T06:14:44;7.60;99.90
9907;DHT22;4992;51.628;6.664;2023-03-26T06:17:11;7.60;99.90
9907;DHT22;4992;51.628;6.664;2023-03-26T06:19:37;7.70;99.90
9907;DHT22;4992;51.628;6.664;2023-03-26T06:22:03;7.70;99.90
9907;DHT22;4992;51.628;6.664;2023-03-26T06:24:29;7.70;99.90
9907;DHT22;4992;51.628;6.664;2023-03-26T06:26:54;7.70;99.90
9907;DHT22;4992;51.628;6.664;2023-03-26T06:29:20;7.60;99.90
9907;DHT22;4992;51.628;6.664;2023-03-26T06:31:45;7.60;99.90
9907;DHT22;4992;51.628;6.664;2023-03-26T06:34:11;7.70;99.90
9907;DHT22;4992;51.628;6.664;2023-03-26T06:36:36;7.70;99.90
9907;DHT22;4992;51.628;6.664;2023-03-26T06:39:03;7.70;99.90
9907;DHT22;4992;51.628;6.664;2023-03-26T06:41:28;7.80;99.90
9907;DHT22;4992;51.628;6.664;2023-03-26T06:43:54;7.80;99.90
9907;DHT22;4992;51.628;6.664;2023-03-26T06:46:20;7.80;99.90
9907;DHT22;4992;51.628;6.664;2023-03-26T06:48:48;7.80;99.90
9907;DHT22;4992;51.628;6.664;2023-03-26T06:51:13;7.80;99.90
9907;DHT22;4992;51.628;6.664;2023-03-26T06:53:39;7.90;99.90
9907;DHT22;4992;51.628;6.664;2023-03-26T06:56:05;7.90;99.90
9907;DHT22;4992;51.628;6.664;2023-03-26T06:58:30;7.90;99.90
9907;DHT22;4992;51.628;6.664;2023-03-26T07:00:56;8.00;99.90
9907;DHT22;4992;51.628;6.664;2023-03-26T07:03:22;8.00;99.90
9907;DHT22;4992;51.628;6.664;2023-03-26T07:05:48;8.00;99.90
9907;DHT22;4992;51.628;6.664;2023-03-26T07:08:14;8.00;99.90
9907;DHT22;4992;51.628;6.664;2023-03-26T07:10:40;8.00;99.90
9907;DHT22;4992;51.628;6.664;2023-03-26T07:13:06;8.10;99.90
9907;DHT22;4992;51.628;6.664;2023-03-26T07:15:31;8.10;99.90
9907;DHT22;4992;51.628;6.664;2023-03-26T07:17:57;8.10;99.90
9907;DHT22;4992;51.628;6.664;2023-03-26T07:20:23;8.10;99.90
9907;DHT22;4992;51.628;6.664;2023-03-26T07:22:48;8.20;99.90
9907;DHT22;4992;51.628;6.664;2023-03-26T07:25:16;8.20;99.90
9907;DHT22;4992;51.628;6.664;2023-03-26T07:33:43;8.30;99.90
9907;DHT22;4992;51.628;6.664;2023-03-26T07:36:28;8.30;99.90
9907;DHT22;4992;51.628;6.664;2023-03-26T07:39:51;8.40;99.90
9907;DHT22;4992;51.628;6.664;2023-03-26T07:42:04;8.40;99.90
9907;DHT22;4992;51.628;6.664;2023-03-26T07:44:50;8.50;99.90
9907;DHT22;4992;51.628;6.664;2023-03-26T07:47:29;8.50;99.90
9907;DHT22;4992;51.628;6.664;2023-03-26T07:49:57;8.50;99.90
9907;DHT22;4992;51.628;6.664;2023-03-26T07:52:23;8.60;99.90
9907;DHT22;4992;51.628;6.664;2023-03-26T07:54:49;8.60;99.90
9907;DHT22;4992;51.628;6.664;2023-03-26T07:57:53;8.60;99.90
9907;DHT22;4992;51.628;6.664;2023-03-26T08:00:19;8.50;99.90
9907;DHT22;4992;51.628;6.664;2023-03-26T08:05:46;8.60;99.90
9907;DHT22;4992;51.628;6.664;2023-03-26T08:08:37;8.60;99.90
9907;DHT22;4992;51.628;6.664;2023-03-26T08:16:50;8.70;99.90
9907;DHT22;4992;51.628;6.664;2023-03-26T08:25:38;8.80;99.90
9907;DHT22;4992;51.628;6.664;2023-03-26T08:27:51;8.80;99.90
9907;DHT22;4992;51.628;6.664;2023-03-26T08:30:24;8.80;99.90
9907;DHT22;4992;51.628;6.664;2023-03-26T08:33:11;8.80;99.90
9907;DHT22;4992;51.628;6.664;2023-03-26T08:35:37;8.80;99.90
9907;DHT22;4992;51.628;6.664;2023-03-26T08:38:14;8.80;99.90
9907;DHT22;4992;51.628;6.664;2023-03-26T08:41:18;8.80;99.90
9907;DHT22;4992;51.628;6.664;2023-03-26T08:55:36;8.90;99.90
9907;DHT22;4992;51.628;6.664;2023-03-26T09:23:24;9.10;99.90
9907;DHT22;4992;51.628;6.664;2023-03-26T09:42:38;9.00;99.90
9907;DHT22;4992;51.628;6.664;2023-03-26T09:55:42;8.80;99.90
9907;DHT22;4992;51.628;6.664;2023-03-26T09:58:22;8.80;99.90
9907;DHT22;4992;51.628;6.664;2023-03-26T10:01:19;8.70;99.90
9907;DHT22;4992;51.628;6.664;2023-03-26T10:06:58;8.70;99.90
9907;DHT22;4992;51.628;6.664;2023-03-26T10:09:28;8.80;99.90
9907;DHT22;4992;51.628;6.664;2023-03-26T10:33:59;9.00;99.90
9907;DHT22;4992;51.628;6.664;2023-03-26T10:36:34;9.00;99.90
9907;DHT22;4992;51.628;6.664;2023-03-26T10:42:08;9.00;99.90
9907;DHT22;4992;51.628;6.664;2023-03-26T10:50:18;9.10;99.90
9907;DHT22;4992;51.628;6.664;2023-03-26T10:52:55;9.10;99.90
9907;DHT22;4992;51.628;6.664;2023-03-26T10:55:34;9.20;99.90
9907;DHT22;4992;51.628;6.664;2023-03-26T10:58:22;9.30;99.90
9907;DHT22;4992;51.628;6.664;2023-03-26T11:01:04;9.20;99.90
9907;DHT22;4992;51.628;6.664;2023-03-26T11:03:38;9.20;99.90
9907;DHT22;4992;51.628;6.664;2023-03-26T11:13:02;9.00;99.90
9907;DHT22;4992;51.628;6.664;2023-03-26T11:23:22;9.10;99.90
9907;DHT22;4992;51.628;6.664;2023-03-26T11:28:53;9.00;99.90
9907;DHT22;4992;51.628;6.664;2023-03-26T11:31:37;9.00;99.90
9907;DHT22;4992;51.628;6.664;2023-03-26T11:34:16;9.10;99.90
9907;DHT22;4992;51.628;6.664;2023-03-26T11:36:49;9.10;99.90
9907;DHT22;4992;51.628;6.664;2023-03-26T11:39:34;9.10;99.90
9907;DHT22;4992;51.628;6.664;2023-03-26T11:42:07;9.10;99.90
9907;DHT22;4992;51.628;6.664;2023-03-26T11:44:44;9.10;99.90
9907;DHT22;4992;51.628;6.664;2023-03-26T11:47:12;9.10;99.90
9907;DHT22;4992;51.628;6.664;2023-03-26T11:49:40;9.10;99.90
9907;DHT22;4992;51.628;6.664;2023-03-26T11:52:10;9.00;99.90
9907;DHT22;4992;51.628;6.664;2023-03-26T11:54:36;9.00;99.90
9907;DHT22;4992;51.628;6.664;2023-03-26T11:57:06;8.90;99.90
9907;DHT22;4992;51.628;6.664;2023-03-26T11:59:35;8.90;99.90
9907;DHT22;4992;51.628;6.664;2023-03-26T12:04:39;8.90;99.90
9907;DHT22;4992;51.628;6.664;2023-03-26T12:07:15;8.90;99.90
9907;DHT22;4992;51.628;6.664;2023-03-26T12:09:51;9.00;99.90
9907;DHT22;4992;51.628;6.664;2023-03-26T12:12:17;9.00;99.90
9907;DHT22;4992;51.628;6.664;2023-03-26T12:14:44;9.10;99.90
9907;DHT22;4992;51.628;6.664;2023-03-26T12:17:36;9.10;99.90
9907;DHT22;4992;51.628;6.664;2023-03-26T12:22:52;9.00;99.90
9907;DHT22;4992;51.628;6.664;2023-03-26T12:25:22;9.00;99.90
9907;DHT22;4992;51.628;6.664;2023-03-26T12:33:18;9.00;99.90
9907;DHT22;4992;51.628;6.664;2023-03-26T12:35:44;9.10;99.90
9907;DHT22;4992;51.628;6.664;2023-03-26T12:40:48;9.30;99.90
9907;DHT22;4992;51.628;6.664;2023-03-26T12:43:35;9.40;99.90
9907;DHT22;4992;51.628;6.664;2023-03-26T12:46:02;9.50;99.90
9907;DHT22;4992;51.628;6.664;2023-03-26T12:48:28;9.60;99.90
9907;DHT22;4992;51.628;6.664;2023-03-26T12:56:19;9.80;99.90
9907;DHT22;4992;51.628;6.664;2023-03-26T13:04:36;9.90;99.90
9907;DHT22;4992;51.628;6.664;2023-03-26T13:10:24;10.10;99.90
9907;DHT22;4992;51.628;6.664;2023-03-26T13:13:24;10.20;99.90
9907;DHT22;4992;51.628;6.664;2023-03-26T13:18:52;10.30;99.90
9907;DHT22;4992;51.628;6.664;2023-03-26T13:24:26;10.40;99.90
9907;DHT22;4992;51.628;6.664;2023-03-26T13:27:10;10.50;99.90
9907;DHT22;4992;51.628;6.664;2023-03-26T13:29:43;10.40;99.90
9907;DHT22;4992;51.628;6.664;2023-03-26T13:35:26;10.20;99.90
9907;DHT22;4992;51.628;6.664;2023-03-26T13:38:21;10.20;99.90
9907;DHT22;4992;51.628;6.664;2023-03-26T13:44:31;10.10;99.90
9907;DHT22;4992;51.628;6.664;2023-03-26T13:47:02;10.10;99.90
9907;DHT22;4992;51.628;6.664;2023-03-26T13:49:36;10.10;99.90
9907;DHT22;4992;51.628;6.664;2023-03-26T13:52:11;10.20;99.90
9907;DHT22;4992;51.628;6.664;2023-03-26T13:57:42;10.30;99.90
9907;DHT22;4992;51.628;6.664;2023-03-26T14:00:16;10.30;99.90
9907;DHT22;4992;51.628;6.664;2023-03-26T14:02:53;10.30;99.90
9907;DHT22;4992;51.628;6.664;2023-03-26T14:10:44;10.20;99.90
9907;DHT22;4992;51.628;6.664;2023-03-26T14:13:18;10.30;99.90
9907;DHT22;4992;51.628;6.664;2023-03-26T14:15:50;10.30;99.90
9907;DHT22;4992;51.628;6.664;2023-03-26T14:18:38;10.40;99.90
9907;DHT22;4992;51.628;6.664;2023-03-26T14:24:25;10.40;99.90
9907;DHT22;4992;51.628;6.664;2023-03-26T14:29:49;10.40;99.90
9907;DHT22;4992;51.628;6.664;2023-03-26T14:32:26;10.30;99.90
9907;DHT22;4992;51.628;6.664;2023-03-26T14:35:10;10.30;99.90
9907;DHT22;4992;51.628;6.664;2023-03-26T14:37:47;10.10;99.90
9907;DHT22;4992;51.628;6.664;2023-03-26T14:40:30;10.10;99.90
9907;DHT22;4992;51.628;6.664;2023-03-26T14:43:27;10.00;99.90
9907;DHT22;4992;51.628;6.664;2023-03-26T14:46:04;9.90;99.90
9907;DHT22;4992;51.628;6.664;2023-03-26T14:52:04;9.70;99.90
9907;DHT22;4992;51.628;6.664;2023-03-26T14:54:14;9.60;99.90
9907;DHT22;4992;51.628;6.664;2023-03-26T15:05:44;9.20;99.90
9907;DHT22;4992;51.628;6.664;2023-03-26T15:22:30;8.70;99.90
9907;DHT22;4992;51.628;6.664;2023-03-26T15:37:10;8.50;99.90
9907;DHT22;4992;51.628;6.664;2023-03-26T15:44:49;8.50;99.90
9907;DHT22;4992;51.628;6.664;2023-03-26T15:47:30;8.60;99.90
9907;DHT22;4992;51.628;6.664;2023-03-26T15:50:29;8.50;99.90
9907;DHT22;4992;51.628;6.664;2023-03-26T15:56:23;8.50;99.90
9907;DHT22;4992;51.628;6.664;2023-03-26T16:04:54;8.50;99.90
9907;DHT22;4992;51.628;6.664;2023-03-26T16:15:37;8.60;99.90
9907;DHT22;4992;51.628;6.664;2023-03-26T16:23:55;8.60;99.90
9907;DHT22;4992;51.628;6.664;2023-03-26T16:29:18;8.60;99.90
9907;DHT22;4992;51.628;6.664;2023-03-26T16:32:12;8.60;99.90
9907;DHT22;4992;51.628;6.664;2023-03-26T16:34:56;8.60;99.90
9907;DHT22;4992;51.628;6.664;2023-03-26T16:37:43;8.50;99.90
9907;DHT22;4992;51.628;6.664;2023-03-26T16:48:44;8.30;99.90
9907;DHT22;4992;51.628;6.664;2023-03-26T16:57:07;8.20;99.90
9907;DHT22;4992;51.628;6.664;2023-03-26T16:59:46;8.20;99.90
9907;DHT22;4992;51.628;6.664;2023-03-26T17:02:46;8.20;99.90
9907;DHT22;4992;51.628;6.664;2023-03-26T17:05:34;8.10;99.90
9907;DHT22;4992;51.628;6.664;2023-03-26T17:08:10;8.10;99.90
9907;DHT22;4992;51.628;6.664;2023-03-26T17:16:22;7.90;99.90
9907;DHT22;4992;51.628;6.664;2023-03-26T17:18:56;7.80;99.90
9907;DHT22;4992;51.628;6.664;2023-03-26T17:21:46;7.80;99.90
9907;DHT22;4992;51.628;6.664;2023-03-26T17:24:20;7.70;99.90
9907;DHT22;4992;51.628;6.664;2023-03-26T17:30:00;7.70;99.90
9907;DHT22;4992;51.628;6.664;2023-03-26T17:35:44;7.60;99.90
9907;DHT22;4992;51.628;6.664;2023-03-26T17:40:55;7.50;99.90
9907;DHT22;4992;51.628;6.664;2023-03-26T17:43:45;7.40;99.90
9907;DHT22;4992;51.628;6.664;2023-03-26T17:46:28;7.40;99.90
9907;DHT22;4992;51.628;6.664;2023-03-26T17:49:27;7.40;99.90
9907;DHT22;4992;51.628;6.664;2023-03-26T17:52:01;7.40;99.90
9907;DHT22;4992;51.628;6.664;2023-03-26T17:54:36;7.30;99.90
9907;DHT22;4992;51.628;6.664;2023-03-26T17:57:14;7.30;99.90
9907;DHT22;4992;51.628;6.664;2023-03-26T17:59:42;7.30;99.90
9907;DHT22;4992;51.628;6.664;2023-03-26T18:02:17;7.20;99.90
9907;DHT22;4992;51.628;6.664;2023-03-26T18:04:46;7.20;99.90
9907;DHT22;4992;51.628;6.664;2023-03-26T18:07:28;7.20;99.90
9907;DHT22;4992;51.628;6.664;2023-03-26T18:18:26;7.10;99.90
9907;DHT22;4992;51.628;6.664;2023-03-26T18:20:54;7.10;99.90
9907;DHT22;4992;51.628;6.664;2023-03-26T18:23:35;7.10;99.90
9907;DHT22;4992;51.628;6.664;2023-03-26T18:26:21;7.10;99.90
9907;DHT22;4992;51.628;6.664;2023-03-26T18:28:53;7.00;99.90
9907;DHT22;4992;51.628;6.664;2023-03-26T18:31:32;7.00;99.90
9907;DHT22;4992;51.628;6.664;2023-03-26T18:34:05;7.00;99.90
9907;DHT22;4992;51.628;6.664;2023-03-26T18:36:35;7.00;99.90
9907;DHT22;4992;51.628;6.664;2023-03-26T18:39:03;7.00;99.90
9907;DHT22;4992;51.628;6.664;2023-03-26T18:41:31;6.90;99.90
9907;DHT22;4992;51.628;6.664;2023-03-26T18:44:03;6.90;99.90
9907;DHT22;4992;51.628;6.664;2023-03-26T18:46:31;6.90;99.90
9907;DHT22;4992;51.628;6.664;2023-03-26T18:48:59;6.90;99.90
9907;DHT22;4992;51.628;6.664;2023-03-26T18:51:26;6.90;99.90
9907;DHT22;4992;51.628;6.664;2023-03-26T18:53:56;6.80;99.90
9907;DHT22;4992;51.628;6.664;2023-03-26T18:58:50;6.80;99.90
9907;DHT22;4992;51.628;6.664;2023-03-26T19:01:17;6.70;99.90
9907;DHT22;4992;51.628;6.664;2023-03-26T19:03:43;6.70;99.90
9907;DHT22;4992;51.628;6.664;2023-03-26T19:06:11;6.70;99.90
9907;DHT22;4992;51.628;6.664;2023-03-26T19:08:41;6.70;99.90
9907;DHT22;4992;51.628;6.664;2023-03-26T19:11:08;6.70;99.90
9907;DHT22;4992;51.628;6.664;2023-03-26T19:13:37;6.70;99.90
9907;DHT22;4992;51.628;6.664;2023-03-26T19:16:11;6.60;99.90
9907;DHT22;4992;51.628;6.664;2023-03-26T19:18:39;6.60;99.90
9907;DHT22;4992;51.628;6.664;2023-03-26T19:21:06;6.60;99.90
9907;DHT22;4992;51.628;6.664;2023-03-26T19:23:36;6.50;99.90
9907;DHT22;4992;51.628;6.664;2023-03-26T19:26:04;6.50;99.90
9907;DHT22;4992;51.628;6.664;2023-03-26T19:28:34;6.50;99.90
9907;DHT22;4992;51.628;6.664;2023-03-26T19:34:25;6.50;99.90
9907;DHT22;4992;51.628;6.664;2023-03-26T19:37:14;6.40;99.90
9907;DHT22;4992;51.628;6.664;2023-03-26T19:39:43;6.40;99.90
9907;DHT22;4992;51.628;6.664;2023-03-26T19:42:22;6.40;99.90
9907;DHT22;4992;51.628;6.664;2023-03-26T19:44:49;6.30;99.90
9907;DHT22;4992;51.628;6.664;2023-03-26T19:47:23;6.30;99.90
9907;DHT22;4992;51.628;6.664;2023-03-26T19:49:58;6.30;99.90
9907;DHT22;4992;51.628;6.664;2023-03-26T19:52:32;6.30;99.90
9907;DHT22;4992;51.628;6.664;2023-03-26T19:57:36;6.30;99.90
9907;DHT22;4992;51.628;6.664;2023-03-26T20:00:03;6.20;99.90
9907;DHT22;4992;51.628;6.664;2023-03-26T20:02:35;6.20;99.90
9907;DHT22;4992;51.628;6.664;2023-03-26T20:05:00;6.20;99.90
9907;DHT22;4992;51.628;6.664;2023-03-26T20:07:26;6.20;99.90
9907;DHT22;4992;51.628;6.664;2023-03-26T20:09:54;6.20;99.90
9907;DHT22;4992;51.628;6.664;2023-03-26T20:12:20;6.10;99.90
9907;DHT22;4992;51.628;6.664;2023-03-26T20:14:46;6.10;99.90
9907;DHT22;4992;51.628;6.664;2023-03-26T20:17:17;6.10;99.90
9907;DHT22;4992;51.628;6.664;2023-03-26T20:19:45;6.10;99.90
9907;DHT22;4992;51.628;6.664;2023-03-26T20:22:16;6.10;99.90
9907;DHT22;4992;51.628;6.664;2023-03-26T20:24:44;6.00;99.90
9907;DHT22;4992;51.628;6.664;2023-03-26T20:27:10;6.00;99.90
9907;DHT22;4992;51.628;6.664;2023-03-26T20:29:37;5.90;99.90
9907;DHT22;4992;51.628;6.664;2023-03-26T20:32:03;5.90;99.90
9907;DHT22;4992;51.628;6.664;2023-03-26T20:34:33;5.90;99.90
9907;DHT22;4992;51.628;6.664;2023-03-26T20:36:59;5.90;99.90
9907;DHT22;4992;51.628;6.664;2023-03-26T20:39:25;5.80;99.90
9907;DHT22;4992;51.628;6.664;2023-03-26T20:41:52;5.80;99.90
9907;DHT22;4992;51.628;6.664;2023-03-26T20:44:19;5.80;99.90
9907;DHT22;4992;51.628;6.664;2023-03-26T20:46:47;5.70;99.90
9907;DHT22;4992;51.628;6.664;2023-03-26T20:49:13;5.70;99.90
9907;DHT22;4992;51.628;6.664;2023-03-26T20:51:39;5.70;99.90
9907;DHT22;4992;51.628;6.664;2023-03-26T20:54:16;5.60;99.90
9907;DHT22;4992;51.628;6.664;2023-03-26T20:56:42;5.50;99.90
9907;DHT22;4992;51.628;6.664;2023-03-26T20:59:10;5.50;99.90
9907;DHT22;4992;51.628;6.664;2023-03-26T21:01:38;5.40;99.90
9907;DHT22;4992;51.628;6.664;2023-03-26T21:04:05;5.30;99.90
9907;DHT22;4992;51.628;6.664;2023-03-26T21:06:30;5.20;99.90
9907;DHT22;4992;51.628;6.664;2023-03-26T21:08:56;5.10;99.90
9907;DHT22;4992;51.628;6.664;2023-03-26T21:11:42;5.00;99.90
9907;DHT22;4992;51.628;6.664;2023-03-26T21:14:23;5.00;99.90
9907;DHT22;4992;51.628;6.664;2023-03-26T21:16:50;5.00;99.90
9907;DHT22;4992;51.628;6.664;2023-03-26T21:19:16;4.90;99.90
9907;DHT22;4992;51.628;6.664;2023-03-26T21:21:58;4.90;99.90
9907;DHT22;4992;51.628;6.664;2023-03-26T21:29:44;4.70;99.90
9907;DHT22;4992;51.628;6.664;2023-03-26T21:32:10;4.70;99.90
9907;DHT22;4992;51.628;6.664;2023-03-26T21:34:37;4.60;99.90
9907;DHT22;4992;51.628;6.664;2023-03-26T21:37:03;4.60;99.90
9907;DHT22;4992;51.628;6.664;2023-03-26T21:39:29;4.50;99.90
9907;DHT22;4992;51.628;6.664;2023-03-26T21:41:55;4.50;99.90
9907;DHT22;4992;51.628;6.664;2023-03-26T21:44:21;4.50;99.90
9907;DHT22;4992;51.628;6.664;2023-03-26T21:46:48;4.40;99.90
9907;DHT22;4992;51.628;6.664;2023-03-26T21:49:15;4.40;99.90
9907;DHT22;4992;51.628;6.664;2023-03-26T21:51:41;4.40;99.90
9907;DHT22;4992;51.628;6.664;2023-03-26T21:54:25;4.40;99.90
9907;DHT22;4992;51.628;6.664;2023-03-26T22:00:14;4.30;99.90
9907;DHT22;4992;51.628;6.664;2023-03-26T22:03:08;4.20;99.90
9907;DHT22;4992;51.628;6.664;2023-03-26T22:08:34;4.10;99.90
9907;DHT22;4992;51.628;6.664;2023-03-26T22:11:01;4.00;99.90
9907;DHT22;4992;51.628;6.664;2023-03-26T22:13:26;4.00;99.90
9907;DHT22;4992;51.628;6.664;2023-03-26T22:15:52;3.90;99.90